الصفحة الرئيسية
METAR-TAF:

METAR-TAF

مطار :

يوكسكوفا, تركيا

دائرة عرض: 37-33-06N, خط طول: 44-14-01E, ارتفاع: 1950 متر

مراقبة الطقس الحالي

تاريخ ووقت الإصدار 1ساعة و 7 دقيقة قبل الساعة 04:50UTC
ريح 2 عقدةمن اتجاهات متغيرة
درجة الحرارة -17°درجة مئوية
الرطوبة 71%
ضغط 1026 hPa
الرؤية: 8000 متر
غيوم قليلة على ارتفاع 3000 قدم

METAR: LTCW 290450Z VRB02KT 8000 FEW030 M17/M21 Q1026

زمن: 08:57 (05:57 UTC)

توقعات

تاريخ ووقت الإصدار 1ساعة و 17 دقيقة قبل الساعة 04:40UTC
التوقعات صالحة من29 الساعة 06 UTC إلى 29 الساعة 15 UTC
ريح 2 عقدةمن اتجاهات متغيرة
الرؤية: 8000 متر
غيوم قليلة على ارتفاع 3000 قدم

TAF: LTCW 290440Z 2906/2915 VRB02KT 8000 FEW030

أرصاد الطقس والتوقعات من أكثر من 4000 مطار (تقارير الطقس للمطار METAR والتنبؤ بالطقس بالمطارTAF).

المحطات المتاحة هي النقط الصفراء والحمراء على الخريطة.

حرك المؤشر فوق النقطة لمعرفة اسم المحطة.

ثم انقر لمعرفة أرصاد وتوقعات الطقس.

لتغيير الخارطة: اضغط على الأزرار الخضراء مع رمز الصليب الأسود للتكبير. على الزر الأخضر مع شرطة للتصغير، أو على الأسهم الخضراء للخرائط المجاورة.


METAR-TAF: